sensor_id;sensor_type;location;lat;lon;timestamp;pressure;altitude;pressure_sealevel;temperature;humidity
70009;BME280;59542;37.950;-122.338;2023-04-25T00:00:31;101211.22;;;20.67;43.08
70009;BME280;59542;37.950;-122.338;2023-04-25T00:03:00;101208.84;;;20.38;41.86
70009;BME280;59542;37.950;-122.338;2023-04-25T00:05:26;101206.53;;;20.57;43.35
70009;BME280;59542;37.950;-122.338;2023-04-25T00:07:53;101204.69;;;20.68;42.57
70009;BME280;59542;37.950;-122.338;2023-04-25T00:10:20;101206.47;;;20.47;42.38
70009;BME280;59542;37.950;-122.338;2023-04-25T00:12:46;101204.63;;;20.58;42.24
70009;BME280;59542;37.950;-122.338;2023-04-25T00:15:13;101199.03;;;20.37;43.23
70009;BME280;59542;37.950;-122.338;2023-04-25T00:17:39;101200.19;;;20.09;43.80
70009;BME280;59542;37.950;-122.338;2023-04-25T00:20:06;101191.38;;;20.29;44.29
70009;BME280;59542;37.950;-122.338;2023-04-25T00:22:36;101196.94;;;20.07;43.04
70009;BME280;59542;37.950;-122.338;2023-04-25T00:25:06;101200.03;;;20.26;43.41
70009;BME280;59542;37.950;-122.338;2023-04-25T00:27:33;101195.38;;;20.16;42.78
70009;BME280;59542;37.950;-122.338;2023-04-25T00:30:00;101190.81;;;19.90;43.99
70009;BME280;59542;37.950;-122.338;2023-04-25T00:32:26;101188.72;;;20.02;43.73
70009;BME280;59542;37.950;-122.338;2023-04-25T00:34:52;101190.38;;;20.03;45.52
70009;BME280;59542;37.950;-122.338;2023-04-25T00:37:19;101189.16;;;20.26;44.31
70009;BME280;59542;37.950;-122.338;2023-04-25T00:39:45;101186.22;;;20.27;45.72
70009;BME280;59542;37.950;-122.338;2023-04-25T00:42:12;101188.81;;;20.12;44.47
70009;BME280;59542;37.950;-122.338;2023-04-25T00:44:38;101185.34;;;19.85;43.95
70009;BME280;59542;37.950;-122.338;2023-04-25T00:47:06;101182.72;;;19.95;45.05
70009;BME280;59542;37.950;-122.338;2023-04-25T00:49:32;101190.91;;;19.68;44.00
70009;BME280;59542;37.950;-122.338;2023-04-25T00:51:59;101192.59;;;19.74;45.05
70009;BME280;59542;37.950;-122.338;2023-04-25T00:54:25;101190.03;;;19.62;43.72
70009;BME280;59542;37.950;-122.338;2023-04-25T00:56:52;101191.84;;;19.84;44.97
70009;BME280;59542;37.950;-122.338;2023-04-25T00:59:19;101188.28;;;19.78;43.19
70009;BME280;59542;37.950;-122.338;2023-04-25T01:01:46;101184.88;;;19.61;43.73
70009;BME280;59542;37.950;-122.338;2023-04-25T01:04:13;101182.38;;;19.59;44.11
70009;BME280;59542;37.950;-122.338;2023-04-25T01:06:40;101185.81;;;19.49;43.33
70009;BME280;59542;37.950;-122.338;2023-04-25T01:09:07;101185.78;;;19.71;45.12
70009;BME280;59542;37.950;-122.338;2023-04-25T01:11:33;101179.78;;;19.69;43.64
70009;BME280;59542;37.950;-122.338;2023-04-25T01:13:59;101188.97;;;19.95;44.71
70009;BME280;59542;37.950;-122.338;2023-04-25T01:16:27;101188.81;;;20.12;43.06
70009;BME280;59542;37.950;-122.338;2023-04-25T01:18:54;101195.06;;;20.13;44.00
70009;BME280;59542;37.950;-122.338;2023-04-25T01:21:20;101191.00;;;20.15;44.06
70009;BME280;59542;37.950;-122.338;2023-04-25T01:23:47;101184.50;;;20.16;43.66
70009;BME280;59542;37.950;-122.338;2023-04-25T01:26:13;101195.06;;;20.13;43.87
70009;BME280;59542;37.950;-122.338;2023-04-25T01:28:40;101192.13;;;20.19;42.63
70009;BME280;59542;37.950;-122.338;2023-04-25T01:31:07;101198.56;;;20.08;42.13
70009;BME280;59542;37.950;-122.338;2023-04-25T01:33:33;101194.63;;;19.89;42.93
70009;BME280;59542;37.950;-122.338;2023-04-25T01:36:00;101193.66;;;20.05;44.94
70009;BME280;59542;37.950;-122.338;2023-04-25T01:38:26;101199.38;;;20.09;45.59
70009;BME280;59542;37.950;-122.338;2023-04-25T01:40:53;101192.25;;;20.02;44.99
70009;BME280;59542;37.950;-122.338;2023-04-25T01:43:20;101193.91;;;20.03;45.95
70009;BME280;59542;37.950;-122.338;2023-04-25T01:45:48;101189.28;;;20.04;45.12
70009;BME280;59542;37.950;-122.338;2023-04-25T01:48:15;101189.47;;;19.92;45.71
70009;BME280;59542;37.950;-122.338;2023-04-25T01:50:41;101199.97;;;19.78;45.94
70009;BME280;59542;37.950;-122.338;2023-04-25T01:53:09;101193.19;;;19.81;46.73
70009;BME280;59542;37.950;-122.338;2023-04-25T01:55:37;101196.53;;;19.88;46.36
70009;BME280;59542;37.950;-122.338;2023-04-25T01:58:03;101195.53;;;19.45;47.10
70009;BME280;59542;37.950;-122.338;2023-04-25T02:00:35;101195.50;;;19.40;47.99
70009;BME280;59542;37.950;-122.338;2023-04-25T02:03:05;101193.56;;;19.14;48.66
70009;BME280;59542;37.950;-122.338;2023-04-25T02:05:38;101193.06;;;19.17;48.49
70009;BME280;59542;37.950;-122.338;2023-04-25T02:08:06;101197.38;;;18.69;48.01
70009;BME280;59542;37.950;-122.338;2023-04-25T02:10:33;101196.13;;;18.60;47.98
70009;BME280;59542;37.950;-122.338;2023-04-25T02:12:59;101196.22;;;18.48;48.71
70009;BME280;59542;37.950;-122.338;2023-04-25T02:15:26;101192.56;;;18.37;49.28
70009;BME280;59542;37.950;-122.338;2023-04-25T02:17:52;101192.81;;;18.36;49.13
70009;BME280;59542;37.950;-122.338;2023-04-25T02:20:21;101194.97;;;18.34;49.64
70009;BME280;59542;37.950;-122.338;2023-04-25T02:22:47;101185.88;;;18.06;49.71
70009;BME280;59542;37.950;-122.338;2023-04-25T02:25:14;101196.06;;;17.82;50.85
70009;BME280;59542;37.950;-122.338;2023-04-25T02:27:42;101199.94;;;17.58;51.53
70009;BME280;59542;37.950;-122.338;2023-04-25T02:30:09;101199.84;;;17.69;51.27
70009;BME280;59542;37.950;-122.338;2023-04-25T02:32:35;101200.09;;;17.51;51.93
70009;BME280;59542;37.950;-122.338;2023-04-25T02:35:02;101204.25;;;17.42;52.63
70009;BME280;59542;37.950;-122.338;2023-04-25T02:37:33;101206.03;;;17.36;53.13
70009;BME280;59542;37.950;-122.338;2023-04-25T02:39:59;101197.03;;;17.19;53.74
70009;BME280;59542;37.950;-122.338;2023-04-25T02:42:26;101201.97;;;16.94;54.23
70009;BME280;59542;37.950;-122.338;2023-04-25T02:44:53;101200.13;;;16.82;54.84
70009;BME280;59542;37.950;-122.338;2023-04-25T02:47:20;101203.41;;;16.26;56.50
70009;BME280;59542;37.950;-122.338;2023-04-25T02:49:46;101202.47;;;16.32;56.68
70009;BME280;59542;37.950;-122.338;2023-04-25T02:52:12;101201.53;;;16.15;57.46
70009;BME280;59542;37.950;-122.338;2023-04-25T02:54:39;101198.47;;;15.99;57.74
70009;BME280;59542;37.950;-122.338;2023-04-25T02:57:06;101191.63;;;15.73;58.30
70009;BME280;59542;37.950;-122.338;2023-04-25T02:59:33;101194.06;;;15.75;58.19
70009;BME280;59542;37.950;-122.338;2023-04-25T03:02:00;101191.19;;;15.58;58.38
70009;BME280;59542;37.950;-122.338;2023-04-25T03:04:26;101198.34;;;15.22;58.89
70009;BME280;59542;37.950;-122.338;2023-04-25T03:06:53;101193.91;;;15.28;59.08
70009;BME280;59542;37.950;-122.338;2023-04-25T03:09:19;101194.25;;;15.01;59.76
70009;BME280;59542;37.950;-122.338;2023-04-25T03:11:46;101196.72;;;15.03;60.02
70009;BME280;59542;37.950;-122.338;2023-04-25T03:14:13;101208.13;;;15.05;60.07
70009;BME280;59542;37.950;-122.338;2023-04-25T03:16:39;101203.25;;;14.95;59.69
70009;BME280;59542;37.950;-122.338;2023-04-25T03:19:06;101210.59;;;14.88;60.17
70009;BME280;59542;37.950;-122.338;2023-04-25T03:21:33;101216.03;;;14.82;60.09
70009;BME280;59542;37.950;-122.338;2023-04-25T03:24:01;101216.44;;;14.85;59.77
70009;BME280;59542;37.950;-122.338;2023-04-25T03:26:28;101225.72;;;14.89;60.01
70009;BME280;59542;37.950;-122.338;2023-04-25T03:28:55;101222.19;;;14.89;60.24
70009;BME280;59542;37.950;-122.338;2023-04-25T03:31:21;101232.75;;;14.72;61.08
70009;BME280;59542;37.950;-122.338;2023-04-25T03:33:48;101233.03;;;14.64;61.25
70009;BME280;59542;37.950;-122.338;2023-04-25T03:36:14;101237.06;;;14.55;61.84
70009;BME280;59542;37.950;-122.338;2023-04-25T03:38:40;101238.72;;;14.56;61.87
70009;BME280;59542;37.950;-122.338;2023-04-25T03:41:09;101252.72;;;14.64;61.83
70009;BME280;59542;37.950;-122.338;2023-04-25T03:43:36;101244.13;;;14.56;61.84
70009;BME280;59542;37.950;-122.338;2023-04-25T03:46:02;101251.56;;;14.53;62.00
70009;BME280;59542;37.950;-122.338;2023-04-25T03:48:28;101248.41;;;14.38;62.50
70009;BME280;59542;37.950;-122.338;2023-04-25T03:50:55;101257.19;;;14.27;62.69
70009;BME280;59542;37.950;-122.338;2023-04-25T03:53:21;101257.50;;;14.37;62.89
70009;BME280;59542;37.950;-122.338;2023-04-25T03:55:47;101254.34;;;14.22;63.48
70009;BME280;59542;37.950;-122.338;2023-04-25T03:58:13;101260.44;;;14.11;64.14
70009;BME280;59542;37.950;-122.338;2023-04-25T04:00:40;101260.19;;;14.12;63.76
70009;BME280;59542;37.950;-122.338;2023-04-25T04:03:06;101263.72;;;14.13;63.64
70009;BME280;59542;37.950;-122.338;2023-04-25T04:05:32;101261.34;;;14.23;63.17
70009;BME280;59542;37.950;-122.338;2023-04-25T04:07:59;101269.88;;;14.20;63.09
70009;BME280;59542;37.950;-122.338;2023-04-25T04:10:25;101270.22;;;13.98;63.19
70009;BME280;59542;37.950;-122.338;2023-04-25T04:12:51;101273.88;;;14.11;63.12
70009;BME280;59542;37.950;-122.338;2023-04-25T04:15:18;101284.19;;;13.89;63.61
70009;BME280;59542;37.950;-122.338;2023-04-25T04:17:44;101278.63;;;13.84;63.83
70009;BME280;59542;37.950;-122.338;2023-04-25T04:20:11;101276.34;;;13.81;63.69
70009;BME280;59542;37.950;-122.338;2023-04-25T04:22:37;101277.03;;;13.69;64.23
70009;BME280;59542;37.950;-122.338;2023-04-25T04:25:03;101282.28;;;13.58;64.53
70009;BME280;59542;37.950;-122.338;2023-04-25T04:27:31;101285.66;;;13.46;65.00
70009;BME280;59542;37.950;-122.338;2023-04-25T04:29:57;101288.75;;;13.50;64.80
70009;BME280;59542;37.950;-122.338;2023-04-25T04:32:24;101309.47;;;13.36;65.18
70009;BME280;59542;37.950;-122.338;2023-04-25T04:34:51;101305.56;;;13.19;65.98
70009;BME280;59542;37.950;-122.338;2023-04-25T04:37:18;101307.25;;;13.13;66.53
70009;BME280;59542;37.950;-122.338;2023-04-25T04:39:44;101302.72;;;13.07;66.91
70009;BME280;59542;37.950;-122.338;2023-04-25T04:42:10;101305.81;;;13.04;66.82
70009;BME280;59542;37.950;-122.338;2023-04-25T04:44:37;101317.41;;;13.05;66.71
70009;BME280;59542;37.950;-122.338;2023-04-25T04:47:05;101313.31;;;12.95;67.08
70009;BME280;59542;37.950;-122.338;2023-04-25T04:49:32;101310.63;;;12.89;67.25
70009;BME280;59542;37.950;-122.338;2023-04-25T04:51:58;101320.34;;;12.70;68.24
70009;BME280;59542;37.950;-122.338;2023-04-25T04:54:26;101319.72;;;12.81;68.12
70009;BME280;59542;37.950;-122.338;2023-04-25T04:56:52;101323.22;;;12.82;68.28
70009;BME280;59542;37.950;-122.338;2023-04-25T04:59:19;101319.94;;;12.80;68.16
70009;BME280;59542;37.950;-122.338;2023-04-25T05:01:45;101315.41;;;12.54;69.35
70009;BME280;59542;37.950;-122.338;2023-04-25T05:04:12;101324.91;;;12.69;68.85
70009;BME280;59542;37.950;-122.338;2023-04-25T05:06:38;101320.78;;;12.60;69.32
70009;BME280;59542;37.950;-122.338;2023-04-25T05:09:05;101319.34;;;12.58;69.13
70009;BME280;59542;37.950;-122.338;2023-04-25T05:11:32;101319.75;;;12.41;69.81
70009;BME280;59542;37.950;-122.338;2023-04-25T05:13:58;101322.44;;;12.35;70.07
70009;BME280;59542;37.950;-122.338;2023-04-25T05:16:25;101324.09;;;12.23;70.65
70009;BME280;59542;37.950;-122.338;2023-04-25T05:18:51;101328.63;;;12.35;70.02
70009;BME280;59542;37.950;-122.338;2023-04-25T05:21:18;101334.00;;;12.35;70.02
70009;BME280;59542;37.950;-122.338;2023-04-25T05:23:44;101331.31;;;12.29;70.11
70009;BME280;59542;37.950;-122.338;2023-04-25T05:26:11;101330.28;;;12.36;70.05
70009;BME280;59542;37.950;-122.338;2023-04-25T05:28:42;101330.06;;;12.31;70.22
70009;BME280;59542;37.950;-122.338;2023-04-25T05:31:09;101333.34;;;12.20;70.66
70009;BME280;59542;37.950;-122.338;2023-04-25T05:33:36;101330.66;;;12.27;70.60
70009;BME280;59542;37.950;-122.338;2023-04-25T05:36:03;101323.66;;;12.19;70.77
70009;BME280;59542;37.950;-122.338;2023-04-25T05:38:30;101325.09;;;12.15;70.84
70009;BME280;59542;37.950;-122.338;2023-04-25T05:40:56;101328.56;;;11.96;71.18
70009;BME280;59542;37.950;-122.338;2023-04-25T05:43:23;101324.25;;;11.95;71.19
70009;BME280;59542;37.950;-122.338;2023-04-25T05:45:49;101331.72;;;12.19;70.94
70009;BME280;59542;37.950;-122.338;2023-04-25T05:48:16;101325.91;;;12.02;72.14
70009;BME280;59542;37.950;-122.338;2023-04-25T05:50:42;101327.31;;;11.85;72.93
70009;BME280;59542;37.950;-122.338;2023-04-25T05:53:08;101328.16;;;11.99;72.68
70009;BME280;59542;37.950;-122.338;2023-04-25T05:55:35;101335.97;;;11.94;73.17
70009;BME280;59542;37.950;-122.338;2023-04-25T05:58:01;101331.88;;;11.91;73.74
70009;BME280;59542;37.950;-122.338;2023-04-25T06:00:27;101331.25;;;11.89;73.92
70009;BME280;59542;37.950;-122.338;2023-04-25T06:02:54;101339.63;;;11.79;74.71
70009;BME280;59542;37.950;-122.338;2023-04-25T06:05:20;101339.22;;;11.76;75.15
70009;BME280;59542;37.950;-122.338;2023-04-25T06:07:46;101340.50;;;11.86;74.75
70009;BME280;59542;37.950;-122.338;2023-04-25T06:10:13;101333.50;;;11.85;74.55
70009;BME280;59542;37.950;-122.338;2023-04-25T06:12:39;101335.31;;;11.78;74.49
70009;BME280;59542;37.950;-122.338;2023-04-25T06:15:06;101338.06;;;11.98;73.49
70009;BME280;59542;37.950;-122.338;2023-04-25T06:17:33;101331.03;;;11.91;73.39
70009;BME280;59542;37.950;-122.338;2023-04-25T06:19:59;101335.19;;;12.00;72.71
70009;BME280;59542;37.950;-122.338;2023-04-25T06:22:25;101342.38;;;11.99;72.70
70009;BME280;59542;37.950;-122.338;2023-04-25T06:24:51;101345.94;;;12.13;73.07
70009;BME280;59542;37.950;-122.338;2023-04-25T06:27:18;101342.22;;;12.07;73.92
70009;BME280;59542;37.950;-122.338;2023-04-25T06:29:44;101350.84;;;11.83;75.36
70009;BME280;59542;37.950;-122.338;2023-04-25T06:32:10;101350.13;;;11.68;76.50
70009;BME280;59542;37.950;-122.338;2023-04-25T06:34:36;101344.22;;;11.85;75.77
70009;BME280;59542;37.950;-122.338;2023-04-25T06:37:02;101346.03;;;11.78;75.12
70009;BME280;59542;37.950;-122.338;2023-04-25T06:39:29;101336.56;;;11.82;75.58
70009;BME280;59542;37.950;-122.338;2023-04-25T06:41:55;101335.16;;;11.86;75.70
70009;BME280;59542;37.950;-122.338;2023-04-25T06:44:21;101338.50;;;12.02;74.68
70009;BME280;59542;37.950;-122.338;2023-04-25T06:46:49;101337.44;;;11.89;75.44
70009;BME280;59542;37.950;-122.338;2023-04-25T06:49:15;101339.91;;;11.84;75.69
70009;BME280;59542;37.950;-122.338;2023-04-25T06:51:42;101334.34;;;11.93;75.24
70009;BME280;59542;37.950;-122.338;2023-04-25T06:54:08;101331.75;;;11.71;75.92
70009;BME280;59542;37.950;-122.338;2023-04-25T06:56:34;101327.06;;;11.80;75.12
70009;BME280;59542;37.950;-122.338;2023-04-25T06:59:00;101339.03;;;11.77;75.48
70009;BME280;59542;37.950;-122.338;2023-04-25T07:01:27;101335.09;;;11.73;75.17
70009;BME280;59542;37.950;-122.338;2023-04-25T07:03:53;101334.59;;;11.50;76.51
70009;BME280;59542;37.950;-122.338;2023-04-25T07:06:19;101330.50;;;11.60;76.33
70009;BME280;59542;37.950;-122.338;2023-04-25T07:08:45;101327.41;;;11.63;76.28
70009;BME280;59542;37.950;-122.338;2023-04-25T07:11:12;101332.34;;;11.60;76.10
70009;BME280;59542;37.950;-122.338;2023-04-25T07:13:38;101332.56;;;11.58;76.29
70009;BME280;59542;37.950;-122.338;2023-04-25T07:16:04;101331.94;;;11.63;76.17
70009;BME280;59542;37.950;-122.338;2023-04-25T07:18:31;101325.16;;;11.60;76.55
70009;BME280;59542;37.950;-122.338;2023-04-25T07:20:57;101335.91;;;11.67;76.14
70009;BME280;59542;37.950;-122.338;2023-04-25T07:23:23;101330.09;;;11.63;76.70
70009;BME280;59542;37.950;-122.338;2023-04-25T07:25:49;101341.63;;;11.57;76.79
70009;BME280;59542;37.950;-122.338;2023-04-25T07:28:16;101335.47;;;11.63;76.89
70009;BME280;59542;37.950;-122.338;2023-04-25T07:30:42;101333.38;;;11.59;76.86
70009;BME280;59542;37.950;-122.338;2023-04-25T07:33:08;101334.28;;;11.79;76.00
70009;BME280;59542;37.950;-122.338;2023-04-25T07:35:34;101334.03;;;11.61;76.40
70009;BME280;59542;37.950;-122.338;2023-04-25T07:38:02;101338.56;;;11.67;75.79
70009;BME280;59542;37.950;-122.338;2023-04-25T07:40:28;101331.09;;;11.49;76.14
70009;BME280;59542;37.950;-122.338;2023-04-25T07:42:55;101333.56;;;11.51;75.97
70009;BME280;59542;37.950;-122.338;2023-04-25T07:45:21;101342.00;;;11.54;75.74
70009;BME280;59542;37.950;-122.338;2023-04-25T07:47:49;101352.31;;;11.51;75.68
70009;BME280;59542;37.950;-122.338;2023-04-25T07:50:15;101346.16;;;11.57;75.18
70009;BME280;59542;37.950;-122.338;2023-04-25T07:52:41;101350.69;;;11.56;74.88
70009;BME280;59542;37.950;-122.338;2023-04-25T07:55:08;101358.00;;;11.28;76.20
70009;BME280;59542;37.950;-122.338;2023-04-25T07:57:35;101350.53;;;11.23;76.64
70009;BME280;59542;37.950;-122.338;2023-04-25T08:00:01;101339.66;;;11.31;76.06
70009;BME280;59542;37.950;-122.338;2023-04-25T08:02:27;101344.81;;;11.33;76.09
70009;BME280;59542;37.950;-122.338;2023-04-25T08:04:54;101333.25;;;11.32;75.99
70009;BME280;59542;37.950;-122.338;2023-04-25T08:07:40;101335.91;;;11.26;76.04
70009;BME280;59542;37.950;-122.338;2023-04-25T08:10:07;101327.00;;;11.19;76.29
70009;BME280;59542;37.950;-122.338;2023-04-25T08:12:34;101330.72;;;11.18;76.38
70009;BME280;59542;37.950;-122.338;2023-04-25T08:15:00;101329.47;;;11.14;76.55
70009;BME280;59542;37.950;-122.338;2023-04-25T08:17:26;101325.91;;;11.06;77.19
70009;BME280;59542;37.950;-122.338;2023-04-25T08:19:53;101322.81;;;11.09;76.93
70009;BME280;59542;37.950;-122.338;2023-04-25T08:22:19;101322.69;;;11.18;76.33
70009;BME280;59542;37.950;-122.338;2023-04-25T08:24:45;101317.69;;;11.08;76.79
70009;BME280;59542;37.950;-122.338;2023-04-25T08:27:11;101325.78;;;11.21;76.25
70009;BME280;59542;37.950;-122.338;2023-04-25T08:29:38;101323.50;;;11.18;77.06
70009;BME280;59542;37.950;-122.338;2023-04-25T08:32:04;101331.03;;;11.01;77.73
70009;BME280;59542;37.950;-122.338;2023-04-25T08:34:30;101326.44;;;10.89;78.81
70009;BME280;59542;37.950;-122.338;2023-04-25T08:36:56;101326.34;;;11.10;78.21
70009;BME280;59542;37.950;-122.338;2023-04-25T08:39:23;101332.97;;;11.14;78.11
70009;BME280;59542;37.950;-122.338;2023-04-25T08:41:50;101325.47;;;11.03;78.78
70009;BME280;59542;37.950;-122.338;2023-04-25T08:44:16;101339.72;;;11.10;78.25
70009;BME280;59542;37.950;-122.338;2023-04-25T08:46:47;101332.09;;;11.07;78.91
70009;BME280;59542;37.950;-122.338;2023-04-25T08:49:17;101332.09;;;11.07;78.96
70009;BME280;59542;37.950;-122.338;2023-04-25T08:51:46;101327.81;;;11.13;78.83
70009;BME280;59542;37.950;-122.338;2023-04-25T08:54:14;101324.22;;;11.33;77.80
70009;BME280;59542;37.950;-122.338;2023-04-25T08:56:43;101328.75;;;11.33;78.22
70009;BME280;59542;37.950;-122.338;2023-04-25T08:59:13;101319.25;;;11.37;78.22
70009;BME280;59542;37.950;-122.338;2023-04-25T09:01:40;101321.72;;;11.32;78.51
70009;BME280;59542;37.950;-122.338;2023-04-25T09:04:06;101317.56;;;11.23;78.92
70009;BME280;59542;37.950;-122.338;2023-04-25T09:06:33;101310.91;;;11.12;79.96
70009;BME280;59542;37.950;-122.338;2023-04-25T09:09:07;101314.44;;;11.19;79.41
70009;BME280;59542;37.950;-122.338;2023-04-25T09:11:35;101309.63;;;11.08;80.14
70009;BME280;59542;37.950;-122.338;2023-04-25T09:17:07;101302.63;;;11.07;79.98
70009;BME280;59542;37.950;-122.338;2023-04-25T09:19:37;101296.00;;;11.03;80.09
70009;BME280;59542;37.950;-122.338;2023-04-25T09:22:06;101301.13;;;10.98;80.04
70009;BME280;59542;37.950;-122.338;2023-04-25T09:24:42;101295.94;;;10.90;80.84
70009;BME280;59542;37.950;-122.338;2023-04-25T09:27:17;101300.34;;;11.04;79.43
70009;BME280;59542;37.950;-122.338;2023-04-25T09:29:44;101283.09;;;11.13;78.89
70009;BME280;59542;37.950;-122.338;2023-04-25T09:34:51;101296.25;;;10.73;80.69
70009;BME280;59542;37.950;-122.338;2023-04-25T09:37:40;101285.97;;;10.77;80.46
70009;BME280;59542;37.950;-122.338;2023-04-25T09:40:07;101286.44;;;10.87;80.29
70009;BME280;59542;37.950;-122.338;2023-04-25T09:42:33;101281.19;;;11.00;79.96
70009;BME280;59542;37.950;-122.338;2023-04-25T09:45:01;101286.88;;;10.91;80.28
70009;BME280;59542;37.950;-122.338;2023-04-25T09:47:28;101276.53;;;10.88;80.06
70009;BME280;59542;37.950;-122.338;2023-04-25T09:49:55;101280.47;;;10.85;80.54
70009;BME280;59542;37.950;-122.338;2023-04-25T09:52:42;101272.53;;;10.70;81.51
70009;BME280;59542;37.950;-122.338;2023-04-25T09:55:08;101272.81;;;10.82;80.65
70009;BME280;59542;37.950;-122.338;2023-04-25T09:57:35;101271.66;;;10.63;81.55
70009;BME280;59542;37.950;-122.338;2023-04-25T10:00:05;101273.13;;;10.66;81.90
70009;BME280;59542;37.950;-122.338;2023-04-25T10:02:38;101271.91;;;10.68;81.90
70009;BME280;59542;37.950;-122.338;2023-04-25T10:05:08;101270.25;;;10.67;81.70
70009;BME280;59542;37.950;-122.338;2023-04-25T10:07:36;101271.06;;;10.61;82.46
70009;BME280;59542;37.950;-122.338;2023-04-25T10:10:04;101267.09;;;10.57;82.55
70009;BME280;59542;37.950;-122.338;2023-04-25T10:12:32;101263.84;;;10.62;82.41
70009;BME280;59542;37.950;-122.338;2023-04-25T10:15:00;101275.44;;;10.75;82.05
70009;BME280;59542;37.950;-122.338;2023-04-25T10:17:26;101268.94;;;10.84;81.47
70009;BME280;59542;37.950;-122.338;2023-04-25T10:19:56;101266.94;;;10.65;82.25
70009;BME280;59542;37.950;-122.338;2023-04-25T10:22:36;101266.91;;;10.58;82.33
70009;BME280;59542;37.950;-122.338;2023-04-25T10:25:04;101271.06;;;10.61;82.53
70009;BME280;59542;37.950;-122.338;2023-04-25T10:27:32;101271.44;;;10.58;82.70
70009;BME280;59542;37.950;-122.338;2023-04-25T10:32:32;101278.47;;;10.66;82.92
70009;BME280;59542;37.950;-122.338;2023-04-25T10:35:16;101278.09;;;10.69;82.59
70009;BME280;59542;37.950;-122.338;2023-04-25T10:40:25;101271.13;;;10.74;81.73
70009;BME280;59542;37.950;-122.338;2023-04-25T10:42:55;101274.38;;;10.70;81.59
70009;BME280;59542;37.950;-122.338;2023-04-25T10:45:22;101275.91;;;10.79;80.13
70009;BME280;59542;37.950;-122.338;2023-04-25T10:47:48;101278.28;;;10.67;80.68
70009;BME280;59542;37.950;-122.338;2023-04-25T10:50:15;101275.41;;;10.69;80.49
70009;BME280;59542;37.950;-122.338;2023-04-25T10:52:42;101281.22;;;10.72;79.82
70009;BME280;59542;37.950;-122.338;2023-04-25T10:55:10;101281.88;;;10.81;79.91
70009;BME280;59542;37.950;-122.338;2023-04-25T11:00:16;101287.50;;;10.58;80.42
70009;BME280;59542;37.950;-122.338;2023-04-25T11:02:47;101280.56;;;10.70;79.85
70009;BME280;59542;37.950;-122.338;2023-04-25T11:05:34;101276.03;;;10.71;79.90
70009;BME280;59542;37.950;-122.338;2023-04-25T11:08:02;101275.41;;;10.69;79.87
70009;BME280;59542;37.950;-122.338;2023-04-25T11:10:31;101271.13;;;10.74;79.70
70009;BME280;59542;37.950;-122.338;2023-04-25T11:13:00;101271.44;;;10.58;80.55
70009;BME280;59542;37.950;-122.338;2023-04-25T11:15:27;101257.59;;;10.54;80.73
70009;BME280;59542;37.950;-122.338;2023-04-25T11:17:54;101252.38;;;10.74;79.90
70009;BME280;59542;37.950;-122.338;2023-04-25T11:20:22;101256.28;;;10.72;80.03
70009;BME280;59542;37.950;-122.338;2023-04-25T11:22:48;101256.63;;;10.62;80.02
70009;BME280;59542;37.950;-122.338;2023-04-25T11:25:15;101256.63;;;10.62;80.31
70009;BME280;59542;37.950;-122.338;2023-04-25T11:27:52;101259.53;;;10.61;80.31
70009;BME280;59542;37.950;-122.338;2023-04-25T11:30:20;101258.50;;;10.62;80.14
70009;BME280;59542;37.950;-122.338;2023-04-25T11:32:47;101261.34;;;10.60;80.13
70009;BME280;59542;37.950;-122.338;2023-04-25T11:35:13;101263.94;;;10.47;80.26
70009;BME280;59542;37.950;-122.338;2023-04-25T11:37:41;101264.56;;;10.49;80.16
70009;BME280;59542;37.950;-122.338;2023-04-25T11:40:08;101265.69;;;10.61;79.88
70009;BME280;59542;37.950;-122.338;2023-04-25T11:42:38;101272.22;;;10.52;79.77
70009;BME280;59542;37.950;-122.338;2023-04-25T11:45:06;101273.25;;;10.51;79.49
70009;BME280;59542;37.950;-122.338;2023-04-25T11:47:33;101263.31;;;10.45;79.57
70009;BME280;59542;37.950;-122.338;2023-04-25T11:50:01;101273.06;;;10.59;79.09
70009;BME280;59542;37.950;-122.338;2023-04-25T11:52:42;101276.69;;;10.45;79.54
70009;BME280;59542;37.950;-122.338;2023-04-25T11:55:19;101276.78;;;10.58;79.24
70009;BME280;59542;37.950;-122.338;2023-04-25T11:57:48;101275.91;;;10.51;79.14
70009;BME280;59542;37.950;-122.338;2023-04-25T12:00:18;101268.78;;;10.37;79.51
70009;BME280;59542;37.950;-122.338;2023-04-25T12:02:53;101261.78;;;10.36;79.43
70009;BME280;59542;37.950;-122.338;2023-04-25T12:05:23;101253.16;;;10.34;78.91
70009;BME280;59542;37.950;-122.338;2023-04-25T12:07:50;101251.34;;;10.41;78.45
70009;BME280;59542;37.950;-122.338;2023-04-25T12:10:17;101249.03;;;10.38;79.09
70009;BME280;59542;37.950;-122.338;2023-04-25T12:12:48;101252.19;;;10.48;79.27
70009;BME280;59542;37.950;-122.338;2023-04-25T12:15:22;101249.78;;;10.53;78.95
70009;BME280;59542;37.950;-122.338;2023-04-25T12:17:50;101258.00;;;10.23;79.51
70009;BME280;59542;37.950;-122.338;2023-04-25T12:20:24;101250.88;;;10.16;79.97
70009;BME280;59542;37.950;-122.338;2023-04-25T12:22:51;101252.44;;;9.82;81.01
70009;BME280;59542;37.950;-122.338;2023-04-25T12:25:41;101239.56;;;9.71;81.38
70009;BME280;59542;37.950;-122.338;2023-04-25T12:30:56;101253.66;;;10.01;79.61
70009;BME280;59542;37.950;-122.338;2023-04-25T12:33:23;101249.97;;;10.02;79.33
70009;BME280;59542;37.950;-122.338;2023-04-25T12:35:50;101259.56;;;9.96;79.05
70009;BME280;59542;37.950;-122.338;2023-04-25T12:38:25;101260.63;;;9.59;79.87